Time;durP1;ratioP1;P1;durP2;ratioP2;P2;SDS_P1;SDS_P2;PMS_P1;PMS_P2;Temp;Humidity;BMP_temperature;BMP_pressure;BME280_temperature;BME280_humidity;BME280_pressure;Samples;Min_cycle;Max_cycle;Signal;HPM_P1;HPM_P2
2023/07/01 00:01:49;;;;;;;3.43;2.70;;;;;;;-143.84;61.97;45041.44;4913411;29;20448;-55
2023/07/01 00:04:16;;;;;;;3.17;2.97;;;;;;;-143.84;62.17;45052.88;4913745;29;20512;-54
2023/07/01 00:06:43;;;;;;;4.03;2.40;;;;;;;-143.84;60.80;45064.31;4912950;29;20520;-55
2023/07/01 00:09:12;;;;;;;2.30;2.10;;;;;;;-143.84;59.75;45037.66;4913140;29;20884;-55
2023/07/01 00:11:39;;;;;;;3.77;2.90;;;;;;;-143.84;59.98;45058.59;4912973;29;20555;-55
2023/07/01 00:14:06;;;;;;;3.73;2.70;;;;;;;-143.84;59.92;45062.41;4912425;29;20448;-55
2023/07/01 00:16:33;;;;;;;7.10;2.40;;;;;;;-143.84;58.90;45043.34;4913178;29;20449;-55
2023/07/01 00:19:00;;;;;;;2.80;2.60;;;;;;;-143.84;58.72;45043.34;4912978;29;20458;-55
2023/07/01 00:21:27;;;;;;;3.07;2.87;;;;;;;-143.84;57.87;45047.16;4912821;29;21268;-55
2023/07/01 00:23:55;;;;;;;3.23;2.87;;;;;;;-143.84;56.95;45047.16;4913264;29;20883;-55
2023/07/01 00:26:23;;;;;;;2.73;2.53;;;;;;;-143.84;56.25;45050.97;4912783;29;20549;-55
2023/07/01 00:28:50;;;;;;;6.13;2.77;;;;;;;-143.84;55.88;45052.88;4913128;29;21047;-55
2023/07/01 00:31:18;;;;;;;7.67;2.63;;;;;;;-143.84;54.72;45037.66;4908017;29;20484;-55
2023/07/01 00:33:45;;;;;;;2.47;2.27;;;;;;;-143.84;53.67;45039.53;4908681;29;20950;-54
2023/07/01 00:36:12;;;;;;;5.00;2.43;;;;;;;-143.84;53.63;45068.13;4906658;29;21376;-55
2023/07/01 00:38:39;;;;;;;2.30;2.20;;;;;;;-143.84;54.09;45050.97;4907372;29;21081;-53
2023/07/01 00:41:06;;;;;;;7.10;2.53;;;;;;;-143.84;53.65;45041.44;4906491;29;20975;-53
2023/07/01 00:43:34;;;;;;;8.73;2.27;;;;;;;-143.84;53.71;45043.34;4906880;29;20453;-54
2023/07/01 00:46:02;;;;;;;6.70;2.77;;;;;;;-143.84;53.21;45030.03;4905703;29;20917;-54
2023/07/01 00:48:30;;;;;;;9.50;2.00;;;;;;;-143.84;53.41;45071.91;4906827;29;20456;-55
2023/07/01 00:50:58;;;;;;;2.47;2.00;;;;;;;-143.84;52.92;45033.84;4905480;29;20492;-55
2023/07/01 00:53:25;;;;;;;2.33;2.23;;;;;;;-143.84;52.50;45026.22;4906642;29;20559;-55
2023/07/01 00:55:53;;;;;;;2.87;2.40;;;;;;;-143.84;52.13;45033.84;4905610;29;20529;-54
2023/07/01 00:58:20;;;;;;;2.87;2.53;;;;;;;-143.84;51.98;45066.22;4906842;29;20487;-55
2023/07/01 01:00:49;;;;;;;4.67;3.27;;;;;;;-143.84;51.81;45020.50;4905681;29;20982;-55
2023/07/01 01:03:22;;;;;;;4.43;2.53;;;;;;;-143.84;51.42;45049.06;4907086;29;20525;-54
2023/07/01 01:05:56;;;;;;;5.00;1.90;;;;;;;-143.84;51.27;45047.16;4904306;29;20446;-55
2023/07/01 01:08:29;;;;;;;3.07;2.17;;;;;;;-143.84;51.04;45041.44;4905682;29;20911;-55
2023/07/01 01:11:00;;;;;;;3.17;2.87;;;;;;;-143.84;50.90;45039.53;4906020;29;21077;-55
2023/07/01 01:13:29;;;;;;;5.80;2.53;;;;;;;-143.84;50.84;45050.97;4908534;29;20452;-55
2023/07/01 01:16:00;;;;;;;3.40;2.60;;;;;;;-143.84;51.07;45037.66;4911603;29;20486;-54
2023/07/01 01:18:31;;;;;;;2.30;2.20;;;;;;;-143.84;51.30;45050.97;4916647;29;20473;-55
2023/07/01 01:20:58;;;;;;;3.30;2.57;;;;;;;-143.84;50.73;45043.34;4916517;29;20492;-55
2023/07/01 01:23:28;;;;;;;2.77;2.57;;;;;;;-143.84;50.69;45022.41;4916512;29;20567;-55
2023/07/01 01:26:06;;;;;;;2.53;2.27;;;;;;;-143.84;51.22;45031.94;4916575;29;20448;-55
2023/07/01 01:28:35;;;;;;;5.70;2.00;;;;;;;-143.84;50.99;45043.34;4916828;29;20528;-55
2023/07/01 01:31:02;;;;;;;2.27;2.17;;;;;;;-143.84;51.05;45022.41;4916569;29;20552;-55
2023/07/01 01:33:29;;;;;;;4.60;2.20;;;;;;;-143.84;51.05;45056.69;4916525;29;20515;-55
2023/07/01 01:36:03;;;;;;;5.80;2.23;;;;;;;-143.84;51.46;45052.88;4916417;29;20508;-55
2023/07/01 01:38:33;;;;;;;3.20;2.20;;;;;;;-143.84;51.61;45050.97;4916311;29;20448;-55
2023/07/01 01:41:07;;;;;;;7.73;2.77;;;;;;;-143.84;51.69;45028.13;4916207;29;20454;-55
2023/07/01 01:43:44;;;;;;;2.77;2.47;;;;;;;-143.84;51.60;45052.88;4916181;29;20470;-55
2023/07/01 01:46:12;;;;;;;4.83;2.70;;;;;;;-143.84;51.64;45039.53;4916265;29;20457;-55
2023/07/01 01:48:40;;;;;;;11.23;2.63;;;;;;;-143.84;51.98;45060.50;4915823;29;20453;-55
2023/07/01 01:51:08;;;;;;;2.43;2.23;;;;;;;-143.84;52.61;45035.75;4915560;29;20998;-55
2023/07/01 01:53:38;;;;;;;3.00;2.80;;;;;;;-143.84;52.77;45056.69;4916000;29;20452;-55
2023/07/01 01:56:06;;;;;;;3.67;2.33;;;;;;;-143.84;52.57;45050.97;4915711;29;20448;-55
2023/07/01 01:58:33;;;;;;;2.60;2.40;;;;;;;-143.84;51.96;45064.31;4916157;29;20453;-55
2023/07/01 02:01:02;;;;;;;2.63;2.43;;;;;;;-143.84;52.10;45052.88;4916038;29;20496;-55
2023/07/01 02:03:29;;;;;;;3.10;2.53;;;;;;;-143.84;52.21;45060.50;4916019;29;20456;-55
2023/07/01 02:05:56;;;;;;;2.20;2.00;;;;;;;-143.84;52.67;45049.06;4915776;29;20441;-55
2023/07/01 02:08:23;;;;;;;3.00;2.30;;;;;;;-143.84;52.94;45047.16;4915578;29;20511;-55
2023/07/01 02:10:50;;;;;;;2.60;2.40;;;;;;;-143.84;52.95;45047.16;4915587;29;21019;-55
2023/07/01 02:13:17;;;;;;;2.97;2.73;;;;;;;-143.84;53.12;45031.94;4915614;29;20515;-55
2023/07/01 02:15:44;;;;;;;7.10;2.20;;;;;;;-143.84;53.55;45049.06;4915701;29;20475;-55
2023/07/01 02:18:13;;;;;;;5.87;2.10;;;;;;;-143.84;53.80;45062.41;4915625;29;20505;-55
2023/07/01 02:20:40;;;;;;;3.97;2.43;;;;;;;-143.84;53.56;45054.78;4915784;29;20460;-55
2023/07/01 02:23:07;;;;;;;6.60;2.47;;;;;;;-143.84;53.76;45058.59;4915384;29;20548;-55
2023/07/01 02:25:34;;;;;;;3.23;2.67;;;;;;;-143.84;54.13;45041.44;4914946;29;20445;-55
2023/07/01 02:28:01;;;;;;;2.67;2.47;;;;;;;-143.84;53.82;45075.72;4915369;29;20881;-55
2023/07/01 02:30:28;;;;;;;7.63;2.93;;;;;;;-143.84;54.09;45043.34;4915103;29;20527;-55
2023/07/01 02:32:55;;;;;;;4.67;2.70;;;;;;;-143.84;54.24;45047.16;4915471;29;20452;-55
2023/07/01 02:35:24;;;;;;;5.20;2.47;;;;;;;-143.84;54.48;45079.53;4915692;29;20521;-55
2023/07/01 02:37:51;;;;;;;4.90;2.50;;;;;;;-143.84;54.76;45054.78;4915319;29;20444;-55
2023/07/01 02:40:18;;;;;;;3.37;2.77;;;;;;;-143.84;54.77;45054.78;4915285;29;21011;-55
2023/07/01 02:42:45;;;;;;;3.20;3.00;;;;;;;-143.84;54.92;45041.44;4915142;29;20878;-55
2023/07/01 02:45:13;;;;;;;4.93;2.40;;;;;;;-143.84;54.95;45071.91;4914910;29;20955;-54
2023/07/01 02:47:40;;;;;;;5.80;2.50;;;;;;;-143.84;54.86;45071.91;4915072;29;20459;-55
2023/07/01 02:50:08;;;;;;;4.13;2.53;;;;;;;-143.84;54.60;45077.63;4914998;29;20515;-55
2023/07/01 02:52:37;;;;;;;8.43;3.23;;;;;;;-143.84;54.50;45052.88;4915296;29;20568;-55
2023/07/01 06:31:16;;;;;;;45.07;38.97;;;;;;;-143.84;33.28;44841.53;5106868;23;20506;-56
2023/07/01 06:33:43;;;;;;;29.13;16.07;;;;;;;-143.84;33.69;44824.38;4937627;29;20495;-55
2023/07/01 06:36:10;;;;;;;22.83;17.50;;;;;;;-143.84;32.95;44778.69;4953758;29;20454;-55
2023/07/01 06:38:37;;;;;;;29.90;18.80;;;;;;;-143.84;32.75;44851.03;4949914;29;20444;-55
2023/07/01 06:41:04;;;;;;;35.63;25.40;;;;;;;-143.84;33.29;44812.97;4935020;29;20447;-55
2023/07/01 06:43:32;;;;;;;32.80;18.53;;;;;;;-143.84;32.68;44858.66;4938576;29;20451;-55
2023/07/01 06:46:00;;;;;;;27.37;19.57;;;;;;;-143.84;33.71;44807.25;4953761;29;20538;-55
2023/07/01 06:48:28;;;;;;;20.67;12.97;;;;;;;-143.84;34.81;44837.72;4954059;29;20442;-55
2023/07/01 06:50:55;;;;;;;31.77;12.00;;;;;;;-143.84;33.91;44854.84;4940868;29;20507;-55
2023/07/01 06:53:22;;;;;;;22.70;13.30;;;;;;;-143.84;35.04;44801.53;4934421;29;20444;-55
2023/07/01 06:55:49;;;;;;;38.30;15.90;;;;;;;-143.84;33.93;44809.16;4934685;29;20447;-55
2023/07/01 06:58:17;;;;;;;36.73;23.57;;;;;;;-143.84;34.00;44816.78;4934412;29;20953;-55
2023/07/01 07:00:44;;;;;;;19.90;14.13;;;;;;;-143.84;34.11;44820.56;4941293;29;20451;-55
2023/07/01 07:03:11;;;;;;;26.37;15.20;;;;;;;-143.84;34.87;44843.44;4953446;29;20451;-55
2023/07/01 07:05:40;;;;;;;13.10;10.00;;;;;;;-143.84;35.18;44868.19;4953716;29;20848;-55
2023/07/01 07:08:07;;;;;;;8.30;6.90;;;;;;;-143.84;34.53;44887.22;4953594;29;20458;-55
2023/07/01 07:10:35;;;;;;;13.13;8.70;;;;;;;-143.84;35.74;44847.22;4952694;28;20875;-55
2023/07/01 07:13:03;;;;;;;7.97;5.63;;;;;;;-143.84;36.58;44835.81;4953411;29;20515;-55
2023/07/01 07:15:30;;;;;;;7.23;3.77;;;;;;;-143.84;37.41;44856.75;4953491;29;20447;-55
2023/07/01 07:17:57;;;;;;;8.80;4.10;;;;;;;-143.84;37.90;44875.78;4953252;29;20443;-55
2023/07/01 07:20:24;;;;;;;18.03;7.50;;;;;;;-143.84;36.88;44858.66;4953168;29;20525;-55
2023/07/01 07:22:53;;;;;;;23.23;10.73;;;;;;;-143.84;36.16;44858.66;4953192;29;20855;-55
2023/07/01 07:25:20;;;;;;;19.93;9.90;;;;;;;-143.84;37.80;44837.72;4953203;29;20559;-55
2023/07/01 07:27:47;;;;;;;16.10;9.47;;;;;;;-143.84;39.09;44856.75;4953112;29;20446;-55
2023/07/01 07:30:15;;;;;;;793.50;714.90;;;;;;;-143.84;39.86;44854.84;4953169;29;20521;-55
2023/07/01 07:32:44;;;;;;;1115.50;996.60;;;;;;;-143.84;39.43;44864.38;4952928;29;20491;-55
2023/07/01 07:35:11;;;;;;;1131.10;999.90;;;;;;;-143.84;37.84;44881.50;4953278;29;20534;-55
2023/07/01 07:37:38;;;;;;;994.13;903.27;;;;;;;-143.84;37.75;44845.31;4953202;29;20792;-55
2023/07/01 07:40:08;;;;;;;971.10;883.77;;;;;;;-143.84;38.54;44841.53;4952943;29;20446;-55
2023/07/01 07:42:35;;;;;;;806.00;733.73;;;;;;;-143.84;38.34;44856.75;4953247;29;20461;-55
2023/07/01 07:45:02;;;;;;;744.60;676.13;;;;;;;-143.84;35.39;44847.22;4953253;29;20494;-55
2023/07/01 07:47:29;;;;;;;773.53;708.70;;;;;;;-143.84;36.62;44849.13;4953093;29;20941;-55
2023/07/01 07:49:57;;;;;;;1110.37;996.93;;;;;;;-143.84;35.30;44862.47;4952877;29;20447;-55
2023/07/01 07:52:24;;;;;;;503.60;458.20;;;;;;;-143.84;38.24;44864.38;4952761;29;20514;-55
2023/07/01 07:54:51;;;;;;;547.23;499.20;;;;;;;-143.84;40.07;44881.50;4952645;29;20510;-55
2023/07/01 07:57:20;;;;;;;477.77;431.07;;;;;;;-143.84;40.94;44868.19;4952388;29;20530;-55
2023/07/01 07:59:47;;;;;;;159.13;144.80;;;;;;;-143.84;39.70;44906.25;4953091;29;20447;-55
2023/07/01 08:02:14;;;;;;;1073.37;967.83;;;;;;;-143.84;38.58;44885.31;4952580;29;20475;-55
2023/07/01 08:04:41;;;;;;;1115.53;999.80;;;;;;;-143.84;38.18;44866.28;4952473;29;20478;-55
2023/07/01 08:07:08;;;;;;;942.53;848.27;;;;;;;-143.84;36.67;44879.59;4952650;29;20510;-55
2023/07/01 08:09:37;;;;;;;1615.50;918.97;;;;;;;-143.84;38.46;44870.09;4952663;29;20479;-55
2023/07/01 08:12:05;;;;;;;972.20;881.93;;;;;;;-143.84;38.77;44870.09;4952366;29;20545;-55
2023/07/01 08:14:33;;;;;;;191.93;152.97;;;;;;;-143.84;40.07;44908.16;4952285;29;20502;-55
2023/07/01 08:17:01;;;;;;;755.77;681.27;;;;;;;-143.84;39.75;44902.44;4952427;29;20542;-55
2023/07/01 08:19:28;;;;;;;742.53;673.43;;;;;;;-143.84;40.54;44904.34;4952439;29;20541;-55
2023/07/01 08:21:55;;;;;;;554.50;496.37;;;;;;;-143.84;37.98;44887.22;4952247;28;20453;-55
2023/07/01 08:24:23;;;;;;;1999.90;999.90;;;;;;;-143.84;37.99;44832.00;4952593;29;20439;-55
2023/07/01 08:26:50;;;;;;;1999.90;999.90;;;;;;;-143.84;37.38;44881.50;4952755;29;20517;-55
2023/07/01 08:29:17;;;;;;;1999.90;999.90;;;;;;;-143.84;37.92;44891.03;4952071;29;20936;-55
2023/07/01 08:31:45;;;;;;;1999.90;999.90;;;;;;;-143.84;38.53;44870.09;4952012;29;20494;-55
2023/07/01 08:34:12;;;;;;;1999.90;999.90;;;;;;;-143.84;38.13;44891.03;4951752;29;20903;-55
2023/07/01 08:36:39;;;;;;;608.83;550.03;;;;;;;-143.84;36.66;44887.22;4951601;29;20446;-55
2023/07/01 08:39:07;;;;;;;1999.90;999.90;;;;;;;-143.84;38.36;44881.50;4951318;29;20921;-55
2023/07/01 08:41:49;;;;;;;1999.90;999.90;;;;;;;-143.84;37.81;44866.28;4951269;29;20530;-55
2023/07/01 08:44:19;;;;;;;1999.90;999.90;;;;;;;-143.84;38.28;44883.41;4950966;29;20482;-55
2023/07/01 08:46:50;;;;;;;1999.90;999.90;;;;;;;-143.84;37.17;44896.75;4951101;29;20458;-55
2023/07/01 08:49:20;;;;;;;1999.90;999.90;;;;;;;-143.84;38.31;44894.84;4950976;29;20451;-55
2023/07/01 08:51:47;;;;;;;1999.90;999.90;;;;;;;-143.84;36.87;44879.59;4951089;29;20542;-55
2023/07/01 08:54:16;;;;;;;1999.90;999.90;;;;;;;-143.84;36.77;44868.19;4951059;29;20439;-55
2023/07/01 08:56:43;;;;;;;1999.90;999.90;;;;;;;-143.84;37.18;44881.50;4951084;29;20450;-55
2023/07/01 08:59:14;;;;;;;1015.53;646.23;;;;;;;-143.84;35.88;44894.84;4950854;29;20510;-55
2023/07/01 09:01:43;;;;;;;351.17;235.33;;;;;;;-143.84;36.17;44902.44;4951136;29;20835;-55
2023/07/01 09:04:12;;;;;;;646.00;581.70;;;;;;;-143.84;36.77;44877.69;4950794;29;20443;-55
2023/07/01 09:06:39;;;;;;;747.17;679.33;;;;;;;-143.84;37.05;44860.56;4950655;29;21017;-55
2023/07/01 09:09:07;;;;;;;620.57;565.40;;;;;;;-143.84;37.23;44894.84;4950754;29;20470;-55
2023/07/01 09:11:35;;;;;;;741.83;673.70;;;;;;;-143.84;35.13;44887.22;4950811;29;20506;-55
2023/07/01 09:14:03;;;;;;;1039.10;939.60;;;;;;;-143.84;36.28;44860.56;4950840;29;20895;-55
2023/07/01 09:16:34;;;;;;;769.10;697.93;;;;;;;-143.84;36.13;44911.97;4950662;29;20949;-55
2023/07/01 09:19:06;;;;;;;894.17;811.90;;;;;;;-143.84;37.74;44896.75;4950960;29;20465;-55
2023/07/01 09:21:35;;;;;;;1019.87;930.30;;;;;;;-143.84;37.75;44873.88;4950835;29;20510;-55
2023/07/01 09:24:05;;;;;;;961.53;875.40;;;;;;;-143.84;37.47;44894.84;4950736;29;20801;-55
2023/07/01 09:26:32;;;;;;;1026.97;935.40;;;;;;;-143.84;36.91;44891.03;4950849;29;20458;-55
2023/07/01 09:29:00;;;;;;;910.83;829.53;;;;;;;-143.84;37.47;44883.41;4950736;29;20455;-55
2023/07/01 09:31:27;;;;;;;264.50;236.73;;;;;;;-143.84;39.33;44885.31;4950741;29;20499;-55
2023/07/01 09:34:06;;;;;;;980.73;889.33;;;;;;;-143.84;36.30;44900.53;4951639;28;20549;-55
2023/07/01 09:36:35;;;;;;;1065.57;962.40;;;;;;;-143.84;38.99;44862.47;4954322;29;20442;-55
2023/07/01 09:39:04;;;;;;;24.83;8.40;;;;;;;-143.84;38.40;44900.53;4954379;29;20828;-55
2023/07/01 09:41:32;;;;;;;561.33;504.53;;;;;;;-143.84;41.18;44881.50;4954144;29;20450;-55
2023/07/01 09:44:00;;;;;;;84.67;76.93;;;;;;;-143.84;42.68;44892.94;4954304;29;20513;-55
2023/07/01 09:46:42;;;;;;;6.50;2.87;;;;;;;-143.84;43.14;44913.88;4954447;29;20450;-55
2023/07/01 09:49:09;;;;;;;7.40;3.93;;;;;;;-143.84;41.24;44925.31;4953994;29;20443;-55
2023/07/01 09:51:47;;;;;;;7.83;2.83;;;;;;;-143.84;43.69;44900.53;4953960;29;20501;-55
2023/07/01 09:54:28;;;;;;;3.60;3.30;;;;;;;-143.84;41.78;44915.78;4954039;29;20558;-55
2023/07/01 09:56:57;;;;;;;8.80;3.40;;;;;;;-143.84;43.14;44911.97;4953844;29;20458;-55
2023/07/01 09:59:24;;;;;;;6.13;3.60;;;;;;;-143.84;45.57;44931.00;4953874;29;20497;-55
2023/07/01 10:01:55;;;;;;;3.67;3.40;;;;;;;-143.84;42.91;44946.25;4954154;29;20450;-55
2023/07/01 10:04:25;;;;;;;6.83;3.70;;;;;;;-143.84;44.68;44934.81;4954044;29;20960;-55
2023/07/01 10:06:55;;;;;;;3.53;3.00;;;;;;;-143.84;42.52;44915.78;4953810;29;20461;-55
2023/07/01 10:09:23;;;;;;;5.50;3.00;;;;;;;-143.84;41.15;44913.88;4953701;29;20537;-55
2023/07/01 10:11:52;;;;;;;4.40;3.90;;;;;;;-143.84;46.29;44900.53;4953739;29;20446;-55
2023/07/01 10:14:22;;;;;;;3.87;3.00;;;;;;;-143.84;45.26;44942.44;4953737;29;20450;-55
2023/07/01 10:16:49;;;;;;;5.53;3.70;;;;;;;-143.84;44.78;44902.44;4953859;29;21015;-55
2023/07/01 10:19:27;;;;;;;9.00;3.13;;;;;;;-143.84;40.86;44919.59;4953720;29;20454;-55
2023/07/01 10:22:23;;;;;;;4.70;3.63;;;;;;;-143.84;42.87;44919.59;4953551;29;20812;-55
2023/07/01 10:25:01;;;;;;;3.43;3.10;;;;;;;-143.84;41.25;44873.88;4953468;29;20462;-55
2023/07/01 10:28:09;;;;;;;4.13;3.80;;;;;;;-143.84;42.52;44919.59;4953256;29;20451;-55
2023/07/01 10:31:13;;;;;;;3.60;3.00;;;;;;;-143.84;43.09;44919.59;4875249;29;20474;-55
2023/07/01 10:33:54;;;;;;;3.70;3.40;;;;;;;-143.84;43.16;44904.34;4875124;29;20489;-55
2023/07/01 10:36:21;;;;;;;3.93;3.63;;;;;;;-143.84;41.42;44927.19;4941359;29;20447;-55
2023/07/01 10:38:49;;;;;;;7.53;4.07;;;;;;;-143.84;41.81;44904.34;4953168;29;20439;-55
2023/07/01 10:41:53;;;;;;;5.80;4.27;;;;;;;-143.84;41.20;44921.50;4953220;29;20487;-55
2023/07/01 10:44:25;;;;;;;4.73;4.10;;;;;;;-143.84;42.19;44913.88;4953096;28;20446;-55
2023/07/01 10:47:13;;;;;;;3.80;3.50;;;;;;;-143.84;40.06;44957.66;4952270;29;20449;-55
2023/07/01 10:50:15;;;;;;;3.73;3.47;;;;;;;-143.84;42.94;44929.09;4953194;29;20451;-55
2023/07/01 10:53:01;;;;;;;4.40;3.97;;;;;;;-143.84;42.47;44931.00;4948293;29;20490;-55
2023/07/01 10:55:43;;;;;;;3.67;3.47;;;;;;;-143.84;43.93;44906.25;4952441;29;20554;-55
2023/07/01 10:58:18;;;;;;;4.50;3.70;;;;;;;-143.84;43.79;44898.66;4953013;29;20449;-55
2023/07/01 11:00:47;;;;;;;4.13;3.57;;;;;;;-143.84;42.90;44927.19;4952974;29;20444;-55
2023/07/01 11:03:47;;;;;;;3.80;3.50;;;;;;;-143.84;45.06;44923.41;4939962;29;20464;-55
2023/07/01 11:06:14;;;;;;;6.53;3.73;;;;;;;-143.84;45.50;44931.00;4940878;29;20506;-55
2023/07/01 11:08:45;;;;;;;4.20;3.77;;;;;;;-143.84;46.12;44923.41;4940235;29;20524;-55
2023/07/01 11:11:20;;;;;;;3.83;3.60;;;;;;;-143.84;46.28;44910.06;4939881;29;20446;-55
2023/07/01 11:13:59;;;;;;;4.30;4.00;;;;;;;-143.84;47.27;44906.25;4952587;29;20486;-55
2023/07/01 11:16:28;;;;;;;4.63;3.80;;;;;;;-143.84;47.44;44917.69;4952938;29;20450;-55
2023/07/01 11:18:57;;;;;;;5.80;4.20;;;;;;;-143.84;46.20;44931.00;4952486;29;20829;-55
2023/07/01 11:21:26;;;;;;;4.77;4.37;;;;;;;-143.84;47.49;44910.06;4952819;29;20451;-55
2023/07/01 11:23:55;;;;;;;5.97;3.90;;;;;;;-143.84;47.03;44910.06;4952497;29;20454;-55
2023/07/01 11:26:25;;;;;;;3.97;3.67;;;;;;;-143.84;45.99;44931.00;4952529;29;20451;-55
2023/07/01 11:28:52;;;;;;;4.43;4.03;;;;;;;-143.84;45.82;44953.88;4952671;29;20860;-55
2023/07/01 11:31:22;;;;;;;4.17;3.77;;;;;;;-143.84;46.72;44915.78;4952130;29;20494;-55
2023/07/01 11:33:50;;;;;;;4.27;3.80;;;;;;;-143.84;47.27;44911.97;4952152;29;20486;-55
2023/07/01 11:36:19;;;;;;;10.00;3.57;;;;;;;-143.84;47.86;44894.84;4935099;29;20482;-55
2023/07/01 11:38:48;;;;;;;4.63;4.20;;;;;;;-143.84;47.34;44931.00;4944618;29;20522;-55
2023/07/01 11:41:17;;;;;;;6.67;4.10;;;;;;;-143.84;49.54;44948.16;4936885;29;20495;-55
2023/07/01 11:43:46;;;;;;;4.13;3.83;;;;;;;-143.84;50.72;44931.00;4933487;29;20514;-55
2023/07/01 11:46:15;;;;;;;4.30;3.93;;;;;;;-143.84;48.43;44957.66;4937281;29;20452;-55
2023/07/01 11:48:42;;;;;;;15.60;4.30;;;;;;;-143.84;46.21;44931.00;4933495;29;20450;-55
2023/07/01 11:51:10;;;;;;;6.10;4.20;;;;;;;-143.84;49.68;44931.00;4932475;29;20917;-55
2023/07/01 11:53:56;;;;;;;5.30;4.73;;;;;;;-143.84;51.40;44955.75;4932743;29;20558;-55
2023/07/01 11:56:23;;;;;;;7.33;3.67;;;;;;;-143.84;52.89;44948.16;4933556;29;20463;-55
2023/07/01 11:58:52;;;;;;;5.20;4.33;;;;;;;-143.84;50.07;44972.91;4937388;29;20461;-55
2023/07/01 12:01:25;;;;;;;4.70;4.30;;;;;;;-143.84;51.29;44976.72;4951831;29;20440;-55
2023/07/01 12:03:53;;;;;;;6.60;4.47;;;;;;;-143.84;51.25;44936.72;4951799;29;20520;-55
2023/07/01 12:06:22;;;;;;;4.50;4.10;;;;;;;-143.84;49.75;44940.53;4951668;29;20529;-55
2023/07/01 12:08:54;;;;;;;4.03;3.70;;;;;;;-143.84;49.29;44955.75;4951584;29;20529;-55
2023/07/01 12:11:21;;;;;;;4.23;3.80;;;;;;;-143.84;51.00;44969.09;4951629;29;21116;-55
2023/07/01 12:13:48;;;;;;;5.53;4.27;;;;;;;-143.84;51.67;44967.19;4951654;29;20495;-55
2023/07/01 12:16:17;;;;;;;6.00;3.90;;;;;;;-143.84;53.93;44967.19;4951823;29;20975;-55
2023/07/01 12:18:45;;;;;;;4.17;3.77;;;;;;;-143.84;53.17;44965.28;4951871;29;21019;-55
2023/07/01 12:21:12;;;;;;;12.50;4.00;;;;;;;-143.84;53.72;44978.63;4951358;29;20449;-55
2023/07/01 12:23:43;;;;;;;7.83;4.37;;;;;;;-143.84;54.23;44946.25;4951510;29;21050;-55
2023/07/01 12:26:12;;;;;;;4.60;4.20;;;;;;;-143.84;51.87;44959.56;4951377;29;20446;-54
2023/07/01 12:28:40;;;;;;;5.57;3.93;;;;;;;-143.84;54.26;44976.72;4951220;29;20513;-55
2023/07/01 12:31:08;;;;;;;4.00;3.60;;;;;;;-143.84;52.57;44953.88;4948136;29;21215;-55
2023/07/01 12:33:37;;;;;;;5.30;3.90;;;;;;;-143.84;53.46;44965.28;4940894;29;20549;-55
2023/07/01 12:36:05;;;;;;;10.90;4.10;;;;;;;-143.84;53.92;44990.03;4945450;29;21035;-55
2023/07/01 12:38:34;;;;;;;8.43;4.20;;;;;;;-143.84;54.60;44976.72;4950995;29;20447;-55
2023/07/01 12:41:03;;;;;;;14.03;4.50;;;;;;;-143.84;54.60;44974.81;4951239;29;20500;-53
2023/07/01 12:43:30;;;;;;;5.97;3.93;;;;;;;-143.84;55.83;44948.16;4951192;29;20460;-53
2023/07/01 12:45:57;;;;;;;4.50;3.90;;;;;;;-143.84;55.66;44961.47;4951130;29;20450;-53
2023/07/01 12:48:24;;;;;;;8.73;4.23;;;;;;;-143.84;54.24;44972.91;4939659;29;20444;-53
2023/07/01 12:50:55;;;;;;;6.17;4.07;;;;;;;-143.84;56.52;44950.06;4931899;29;20451;-53
2023/07/01 12:53:22;;;;;;;3.90;3.70;;;;;;;-143.84;54.98;44971.00;4932344;29;21460;-53
2023/07/01 12:55:50;;;;;;;4.00;3.70;;;;;;;-143.84;56.67;44976.72;4932237;29;20901;-53
2023/07/01 12:58:19;;;;;;;4.93;4.63;;;;;;;-143.84;59.37;45041.44;4931885;29;20475;-53
2023/07/01 13:00:48;;;;;;;5.53;4.60;;;;;;;-143.84;60.58;44965.28;4930665;29;20455;-53
2023/07/01 13:03:15;;;;;;;8.93;4.77;;;;;;;-143.84;61.50;44967.19;4938198;29;20448;-53
2023/07/01 13:05:42;;;;;;;8.63;4.50;;;;;;;-143.84;62.73;44965.28;4935794;29;20460;-52
2023/07/01 13:08:13;;;;;;;4.90;4.40;;;;;;;-143.84;63.03;45003.38;4937394;28;20447;-53
2023/07/01 13:10:42;;;;;;;8.10;4.77;;;;;;;-143.84;64.88;44984.31;4939261;29;20442;-53
2023/07/01 13:13:10;;;;;;;10.60;4.53;;;;;;;-143.84;67.18;44982.41;4937972;29;21002;-52
2023/07/01 13:15:45;;;;;;;7.17;4.87;;;;;;;-143.84;66.84;44974.81;4945914;29;20490;-53
2023/07/01 13:18:17;;;;;;;4.53;4.17;;;;;;;-143.84;67.13;44988.13;4950469;29;20442;-53
2023/07/01 13:20:44;;;;;;;8.40;5.30;;;;;;;-143.84;68.46;44991.94;4950683;29;20513;-53
2023/07/01 13:23:13;;;;;;;4.30;4.00;;;;;;;-143.84;69.58;44997.66;4947957;29;20553;-53
2023/07/01 13:25:40;;;;;;;6.47;5.33;;;;;;;-143.84;70.29;44988.13;4940062;29;20466;-53
2023/07/01 13:28:07;;;;;;;4.93;4.50;;;;;;;-143.84;72.40;44982.41;4930277;28;21441;-53
2023/07/01 13:30:45;;;;;;;7.87;5.03;;;;;;;-143.84;73.33;44980.53;4934209;29;20476;-53
2023/07/01 13:33:14;;;;;;;6.80;4.97;;;;;;;-143.84;73.39;44959.56;4938683;29;20585;-53
2023/07/01 13:35:41;;;;;;;7.10;4.53;;;;;;;-143.84;72.52;44978.63;4939869;29;20468;-53
2023/07/01 13:38:09;;;;;;;6.20;4.30;;;;;;;-143.84;72.69;44976.72;4930495;29;20823;-53
2023/07/01 13:40:41;;;;;;;5.50;4.90;;;;;;;-143.84;74.33;44988.13;4929910;29;20462;-53
2023/07/01 13:43:16;;;;;;;6.80;5.03;;;;;;;-143.84;75.58;44997.66;4939096;29;20462;-53
2023/07/01 13:45:43;;;;;;;6.93;4.33;;;;;;;-143.84;75.85;44991.94;4938087;29;20457;-53
2023/07/01 13:48:13;;;;;;;7.23;4.67;;;;;;;-143.84;77.09;44995.75;4929114;29;20455;-53
2023/07/01 13:50:40;;;;;;;5.83;4.70;;;;;;;-143.84;77.02;44976.72;4940556;29;20455;-53
2023/07/01 13:53:09;;;;;;;11.17;5.00;;;;;;;-143.84;76.89;44984.31;4929718;29;20940;-53
2023/07/01 13:55:38;;;;;;;19.97;7.50;;;;;;;-143.84;76.49;45030.03;4933309;29;20537;-55
2023/07/01 13:58:08;;;;;;;5.40;4.90;;;;;;;-143.84;75.80;44984.31;4929579;29;20471;-55
2023/07/01 14:00:40;;;;;;;4.43;4.13;;;;;;;-143.84;75.19;45024.31;4937580;29;20455;-55
2023/07/01 14:03:12;;;;;;;6.33;3.80;;;;;;;-143.84;74.59;44969.09;4939115;29;20455;-55
2023/07/01 14:05:40;;;;;;;8.13;4.93;;;;;;;-143.84;73.92;44991.94;4928448;29;20849;-55
2023/07/01 14:08:08;;;;;;;9.33;4.90;;;;;;;-143.84;74.69;44993.84;4929686;29;20866;-55
2023/07/01 14:10:37;;;;;;;7.17;4.77;;;;;;;-143.84;76.10;44990.03;4933757;29;20459;-55
2023/07/01 14:13:06;;;;;;;7.27;5.63;;;;;;;-143.84;77.48;44999.56;4931174;29;20522;-55
2023/07/01 14:15:37;;;;;;;9.13;5.67;;;;;;;-143.84;78.37;44999.56;4946637;29;20897;-55
2023/07/01 14:18:21;;;;;;;8.67;5.83;;;;;;;-143.84;77.85;44984.31;4949894;29;20450;-55
2023/07/01 14:20:52;;;;;;;6.17;5.53;;;;;;;-143.84;79.67;44991.94;4952704;28;20442;-55
2023/07/01 14:23:21;;;;;;;9.20;5.93;;;;;;;-143.84;79.89;44984.31;4951816;29;20454;-55
2023/07/01 14:25:51;;;;;;;6.00;5.17;;;;;;;-143.84;79.05;44990.03;4934366;29;20451;-55
2023/07/01 14:28:19;;;;;;;8.90;5.23;;;;;;;-143.84;78.94;44984.31;4934370;29;20456;-55
2023/07/01 14:31:07;;;;;;;8.67;5.80;;;;;;;-143.84;77.42;45007.19;4934660;29;20474;-55
2023/07/01 14:33:40;;;;;;;13.80;7.40;;;;;;;-143.84;77.39;45005.28;4934503;29;20448;-55
2023/07/01 14:36:09;;;;;;;6.60;5.90;;;;;;;-143.84;78.88;44995.75;4936837;29;20542;-55
2023/07/01 14:38:40;;;;;;;6.77;4.90;;;;;;;-143.84;77.06;44986.22;4942456;29;20456;-55
2023/07/01 14:41:23;;;;;;;5.47;4.80;;;;;;;-143.84;75.54;45003.38;4942123;29;20440;-53
2023/07/01 14:43:54;;;;;;;9.63;6.30;;;;;;;-143.84;77.49;44974.81;4934261;29;20504;-53
2023/07/01 14:46:22;;;;;;;5.00;4.53;;;;;;;-143.84;75.76;45005.28;4936670;29;20511;-53
2023/07/01 14:48:50;;;;;;;5.93;5.30;;;;;;;-143.84;77.47;44982.41;4934247;29;21002;-53
2023/07/01 14:51:18;;;;;;;5.20;4.70;;;;;;;-143.84;75.54;45003.38;4940698;29;20510;-53
2023/07/01 14:53:50;;;;;;;5.13;4.63;;;;;;;-143.84;75.72;45024.31;4953304;29;20504;-53
2023/07/01 14:56:18;;;;;;;5.53;4.97;;;;;;;-143.84;76.17;44993.84;4953317;29;20454;-53
2023/07/01 14:58:46;;;;;;;8.13;5.30;;;;;;;-143.84;76.02;45007.19;4953125;29;20954;-53